KRBG/RBG METAR and TAF weather

Enter ICAO airport designator
Station Type Date Time Source
KRBG METAR 2019/06/26 18:53 UTC NOAA

KRBG 261853Z AUTO 34008KT 10SM FEW080 21/07 A2986 RMK AO2 SLP109 T02110067


Station Type Date Time Source
KRBG Decoded METAR 2019/06/26 18:53 UTC NOAA

ROSEBURG REGIONAL AIRPORT, OR, United States (KRBG) 43-14N 123-21W 154M
Jun 26, 2019 - 02:53 PM EDT / 2019.06.26 1853 UTC
Wind: from the NNW (340 degrees) at 9 MPH (8 KT):0
Visibility: 10 mile(s):0
Sky conditions: mostly clear
Temperature: 70.0 F (21.1 C)
Dew Point: 44.1 F (6.7 C)
Relative Humidity: 39%
Pressure (altimeter): 29.86 in. Hg (1011 hPa)
ob: KRBG 261853Z AUTO 34008KT 10SM FEW080 21/07 A2986 RMK AO2 SLP109 T02110067
cycle: 19

Station Type Date Time Source
KRBG TAF 2019/06/26 18:30 UTC NOAA

TAF KRBG 261727Z 2618/2718 VRB03KT P6SM BKN080
FM262200 30006KT P6SM -TSRA SCT020 BKN045CB
FM270100 30005KT P6SM -SHRA VCTS SCT020 OVC040CB
FM270300 VRB02KT P6SM VCSH SCT015 OVC040

Example: see airport list